Time;durP1;ratioP1;P1;durP2;ratioP2;P2;SDS_P1;SDS_P2;PMS_P1;PMS_P2;Temp;Humidity;BMP_temperature;BMP_pressure;BME280_temperature;BME280_humidity;BME280_pressure;Samples;Min_cycle;Max_cycle;Signal;HPM_P1;HPM_P2
2023/05/31 00:00:23;;;;;;;4.17;2.90;;;15.50;1.00;;;;;;4962037;28;21005;-73
2023/05/31 00:02:50;;;;;;;2.53;2.30;;;15.50;1.00;;;;;;4961291;28;20581;-73
2023/05/31 00:05:18;;;;;;;3.53;2.20;;;15.50;1.00;;;;;;4959058;28;20697;-73
2023/05/31 00:07:45;;;;;;;4.20;2.70;;;15.40;1.00;;;;;;4963924;28;20473;-73
2023/05/31 00:10:12;;;;;;;3.07;2.53;;;15.40;1.00;;;;;;4965361;28;20472;-72
2023/05/31 00:12:39;;;;;;;2.40;2.20;;;15.40;1.00;;;;;;4960501;28;20827;-74
2023/05/31 00:15:07;;;;;;;2.67;2.47;;;15.30;1.00;;;;;;4962018;28;20486;-73
2023/05/31 00:17:34;;;;;;;3.37;2.30;;;15.20;1.00;;;;;;4964808;28;20484;-73
2023/05/31 00:20:01;;;;;;;5.30;2.40;;;15.20;1.00;;;;;;4963656;28;20465;-73
2023/05/31 00:22:29;;;;;;;2.90;2.27;;;15.10;1.00;;;;;;4962035;28;20505;-72
2023/05/31 00:24:56;;;;;;;4.63;2.70;;;15.10;1.00;;;;;;4960683;28;20500;-71
2023/05/31 00:27:23;;;;;;;3.43;2.87;;;15.10;1.00;;;;;;4966582;28;20466;-72
2023/05/31 00:29:50;;;;;;;2.80;2.00;;;15.00;1.00;;;;;;4964188;28;20484;-72
2023/05/31 00:32:17;;;;;;;3.27;2.07;;;15.00;1.00;;;;;;4964937;28;20456;-72
2023/05/31 00:34:44;;;;;;;4.20;2.57;;;14.90;1.00;;;;;;4957892;28;21396;-72
2023/05/31 00:37:11;;;;;;;7.13;4.30;;;14.90;1.00;;;;;;4963351;28;20523;-72
2023/05/31 00:39:39;;;;;;;2.67;1.90;;;14.90;1.00;;;;;;4967370;28;20484;-72
2023/05/31 00:42:08;;;;;;;2.07;1.80;;;14.90;1.00;;;;;;4964137;28;20539;-73
2023/05/31 00:44:34;;;;;;;2.90;2.10;;;14.80;1.00;;;;;;4964207;28;20490;-73
2023/05/31 00:47:02;;;;;;;3.60;1.80;;;14.70;1.00;;;;;;4967328;28;20846;-72
2023/05/31 00:49:31;;;;;;;4.53;2.23;;;14.70;1.00;;;;;;4965455;28;20480;-74
2023/05/31 00:52:01;;;;;;;4.10;2.27;;;14.70;1.00;;;;;;4965829;28;20587;-72
2023/05/31 00:54:28;;;;;;;4.87;2.10;;;14.70;1.00;;;;;;4963966;28;20470;-72
2023/05/31 00:56:56;;;;;;;2.37;2.07;;;14.60;1.00;;;;;;4964271;28;20463;-73
2023/05/31 00:59:23;;;;;;;4.23;2.80;;;14.60;1.00;;;;;;4963760;28;20484;-71
2023/05/31 01:01:51;;;;;;;2.50;1.93;;;14.50;1.00;;;;;;4964816;28;20999;-73
2023/05/31 01:04:18;;;;;;;2.43;2.10;;;14.50;1.00;;;;;;4982424;23;20466;-72
2023/05/31 01:06:46;;;;;;;3.80;2.60;;;14.50;1.00;;;;;;4985798;28;20549;-72
2023/05/31 01:09:13;;;;;;;5.37;2.70;;;14.40;1.00;;;;;;4986261;28;21657;-72
2023/05/31 01:12:00;;;;;;;2.40;1.87;;;14.30;1.00;;;;;;4984573;28;20581;-73
2023/05/31 01:14:36;;;;;;;5.47;3.00;;;14.30;1.00;;;;;;4972886;28;20486;-71
2023/05/31 01:17:13;;;;;;;3.60;2.40;;;14.30;1.00;;;;;;4981639;28;20469;-73
2023/05/31 01:19:47;;;;;;;2.80;2.00;;;14.30;1.00;;;;;;4981189;28;20482;-73
2023/05/31 01:22:35;;;;;;;2.87;1.93;;;14.20;1.00;;;;;;4979201;28;20511;-73
2023/05/31 01:25:23;;;;;;;4.13;2.30;;;14.30;1.00;;;;;;4979752;28;20468;-71
2023/05/31 01:27:54;;;;;;;2.60;2.07;;;14.30;1.00;;;;;;4980799;28;20975;-72
2023/05/31 01:30:22;;;;;;;3.40;2.30;;;14.20;1.00;;;;;;4983441;28;20956;-72
2023/05/31 01:32:51;;;;;;;5.50;2.30;;;14.10;1.00;;;;;;4982366;28;20487;-72
2023/05/31 01:35:19;;;;;;;3.70;2.20;;;14.10;1.00;;;;;;4977690;28;20557;-73
2023/05/31 01:37:46;;;;;;;6.33;3.00;;;14.10;1.00;;;;;;4985536;28;21040;-73
2023/05/31 01:40:14;;;;;;;3.37;2.47;;;14.00;1.00;;;;;;4983544;28;20553;-71
2023/05/31 01:42:42;;;;;;;4.60;2.23;;;14.00;1.00;;;;;;4982323;28;20470;-72
2023/05/31 01:45:13;;;;;;;3.03;2.30;;;14.00;1.00;;;;;;4981475;28;20486;-71
2023/05/31 01:47:41;;;;;;;5.03;2.57;;;14.00;1.00;;;;;;4986878;28;20596;-71
2023/05/31 01:50:10;;;;;;;7.33;2.33;;;14.00;1.00;;;;;;4982056;28;21230;-72
2023/05/31 01:52:38;;;;;;;3.17;2.10;;;13.90;1.00;;;;;;4984972;28;20497;-72
2023/05/31 01:55:06;;;;;;;3.37;2.53;;;13.90;1.00;;;;;;4983016;28;20472;-72
2023/05/31 01:57:36;;;;;;;4.53;2.50;;;13.80;1.00;;;;;;4990721;28;20462;-73
2023/05/31 02:00:06;;;;;;;2.80;1.90;;;13.80;1.00;;;;;;4984767;28;20519;-71
2023/05/31 02:02:35;;;;;;;4.80;2.33;;;13.70;1.00;;;;;;4984930;28;20476;-73
2023/05/31 02:05:08;;;;;;;4.90;2.57;;;13.70;1.00;;;;;;4982803;28;20473;-73
2023/05/31 02:07:36;;;;;;;4.07;3.20;;;13.70;1.00;;;;;;4984196;28;20886;-72
2023/05/31 02:10:03;;;;;;;3.40;2.27;;;13.70;1.00;;;;;;4985334;28;20449;-72
2023/05/31 02:12:30;;;;;;;4.53;2.80;;;13.70;1.00;;;;;;4982553;28;20466;-72
2023/05/31 02:14:57;;;;;;;5.90;2.80;;;13.60;1.00;;;;;;4981195;28;20477;-74
2023/05/31 02:17:24;;;;;;;6.00;2.93;;;13.60;1.00;;;;;;4979364;28;20557;-72
2023/05/31 02:19:53;;;;;;;6.53;3.47;;;13.50;1.00;;;;;;4982716;28;20577;-72
2023/05/31 02:22:20;;;;;;;4.43;2.30;;;13.50;1.00;;;;;;4985131;28;20465;-73
2023/05/31 02:24:47;;;;;;;5.77;2.80;;;13.40;1.00;;;;;;4982623;28;20957;-71
2023/05/31 02:27:14;;;;;;;5.13;2.57;;;13.40;1.00;;;;;;4982767;28;20477;-72
2023/05/31 02:29:42;;;;;;;3.80;2.30;;;13.30;1.00;;;;;;4980339;28;20583;-72
2023/05/31 02:32:09;;;;;;;8.47;3.80;;;13.30;1.00;;;;;;4977611;28;20461;-72
2023/05/31 02:34:36;;;;;;;3.97;2.43;;;13.30;1.00;;;;;;4978145;28;20524;-72
2023/05/31 02:37:05;;;;;;;6.43;3.60;;;13.20;1.00;;;;;;4986946;28;20463;-72
2023/05/31 02:39:32;;;;;;;5.40;2.83;;;13.10;1.00;;;;;;4984595;28;20471;-72
2023/05/31 02:41:59;;;;;;;4.27;2.77;;;13.10;1.00;;;;;;4985040;28;20465;-73
2023/05/31 02:44:26;;;;;;;10.37;3.00;;;13.10;1.00;;;;;;4986729;28;20482;-73
2023/05/31 02:46:53;;;;;;;6.27;3.23;;;13.10;1.00;;;;;;4980363;28;21342;-73
2023/05/31 02:49:20;;;;;;;6.50;3.43;;;13.10;1.00;;;;;;4983584;28;20460;-72
2023/05/31 02:51:47;;;;;;;5.30;2.30;;;13.00;1.00;;;;;;4982892;28;20556;-73
2023/05/31 02:54:15;;;;;;;4.77;3.10;;;13.00;1.00;;;;;;4984244;28;20571;-73
2023/05/31 02:56:42;;;;;;;7.40;2.83;;;13.00;1.00;;;;;;4983090;28;20440;-73
2023/05/31 02:59:09;;;;;;;4.63;2.73;;;12.90;1.00;;;;;;4985362;28;20548;-73
2023/05/31 03:01:36;;;;;;;2.60;2.40;;;12.90;1.00;;;;;;4980288;28;20465;-72
2023/05/31 03:04:03;;;;;;;4.03;2.90;;;12.90;1.00;;;;;;4977582;28;20496;-73
2023/05/31 03:06:30;;;;;;;3.57;2.83;;;12.90;1.00;;;;;;4985317;28;20550;-73
2023/05/31 03:08:57;;;;;;;6.27;3.10;;;12.90;1.00;;;;;;4983689;28;20464;-73
2023/05/31 03:11:26;;;;;;;4.37;2.37;;;12.80;1.00;;;;;;4980946;28;20473;-72
2023/05/31 03:13:53;;;;;;;4.90;2.13;;;12.90;1.00;;;;;;4981093;28;20479;-72
2023/05/31 03:16:20;;;;;;;3.17;2.13;;;12.90;1.00;;;;;;4983269;28;20480;-71
2023/05/31 03:18:47;;;;;;;4.07;2.67;;;12.80;1.00;;;;;;4979979;28;20504;-72
2023/05/31 03:21:15;;;;;;;5.13;3.20;;;12.90;1.00;;;;;;4976762;28;20479;-71
2023/05/31 03:23:42;;;;;;;4.13;2.90;;;12.90;1.00;;;;;;4982115;28;21193;-71
2023/05/31 03:26:09;;;;;;;6.10;3.27;;;12.90;1.00;;;;;;4985814;28;20469;-73
2023/05/31 03:28:37;;;;;;;3.90;2.83;;;12.90;1.00;;;;;;4981343;28;20822;-71
2023/05/31 03:31:05;;;;;;;5.27;2.90;;;13.00;1.00;;;;;;4983269;28;20549;-72
2023/05/31 03:33:32;;;;;;;6.23;3.40;;;13.00;1.00;;;;;;4972364;28;20599;-72
2023/05/31 03:35:59;;;;;;;6.00;3.17;;;12.90;1.00;;;;;;4981019;28;20461;-72
2023/05/31 03:38:26;;;;;;;4.97;2.73;;;13.00;1.00;;;;;;4978838;28;20551;-72
2023/05/31 03:40:52;;;;;;;5.97;3.33;;;13.00;1.00;;;;;;4982125;28;20523;-73
2023/05/31 03:43:19;;;;;;;8.30;4.00;;;13.00;1.00;;;;;;4982658;28;20478;-73
2023/05/31 03:45:48;;;;;;;15.23;4.67;;;13.00;1.00;;;;;;4978939;28;20461;-72
2023/05/31 03:48:15;;;;;;;27.43;6.10;;;13.10;1.00;;;;;;4983802;28;20462;-73
2023/05/31 03:50:42;;;;;;;8.33;4.10;;;13.10;1.00;;;;;;4980940;28;20571;-72
2023/05/31 03:53:09;;;;;;;10.60;4.03;;;13.10;1.00;;;;;;4981418;28;20473;-72
2023/05/31 03:55:36;;;;;;;8.97;3.97;;;13.20;1.00;;;;;;4980981;28;20461;-73
2023/05/31 03:58:03;;;;;;;7.70;4.60;;;13.20;1.00;;;;;;4984904;28;21110;-73
2023/05/31 04:00:30;;;;;;;10.20;4.60;;;13.20;1.00;;;;;;4982422;28;20465;-73
2023/05/31 04:02:59;;;;;;;8.47;3.67;;;13.20;1.00;;;;;;4981261;28;20521;-72
2023/05/31 04:05:25;;;;;;;10.87;5.30;;;13.20;1.00;;;;;;4959012;28;20547;-71
2023/05/31 04:07:53;;;;;;;7.80;3.63;;;13.20;1.00;;;;;;4959864;28;23151;-72
2023/05/31 04:10:20;;;;;;;7.70;3.50;;;13.20;1.00;;;;;;4958615;28;20485;-73
2023/05/31 04:12:47;;;;;;;7.13;3.20;;;13.20;1.00;;;;;;4960138;28;20576;-72
2023/05/31 04:15:14;;;;;;;11.40;4.00;;;13.20;1.00;;;;;;4960629;28;20604;-74
2023/05/31 04:17:40;;;;;;;6.77;3.73;;;13.20;1.00;;;;;;4960687;28;20477;-73
2023/05/31 04:20:11;;;;;;;17.33;7.40;;;13.30;1.00;;;;;;4957307;28;20465;-73
2023/05/31 04:22:38;;;;;;;8.53;4.23;;;13.30;1.00;;;;;;4960683;28;20483;-73
2023/05/31 04:25:06;;;;;;;14.23;4.57;;;13.30;1.00;;;;;;4958868;28;20489;-73
2023/05/31 04:27:33;;;;;;;10.13;6.70;;;13.30;1.00;;;;;;4963070;28;21246;-72
2023/05/31 04:30:00;;;;;;;8.60;6.17;;;13.30;1.00;;;;;;4961363;28;20470;-72
2023/05/31 04:32:28;;;;;;;5.87;3.30;;;13.30;1.00;;;;;;4962739;28;20567;-72
2023/05/31 04:34:57;;;;;;;8.40;3.90;;;13.40;1.00;;;;;;4963494;28;20509;-72
2023/05/31 04:37:28;;;;;;;8.30;3.57;;;13.50;1.00;;;;;;4956350;28;20951;-73
2023/05/31 04:39:56;;;;;;;6.03;3.93;;;13.50;1.00;;;;;;4965565;28;20503;-73
2023/05/31 04:42:24;;;;;;;6.03;3.40;;;13.50;1.00;;;;;;4945126;28;20553;-73
2023/05/31 04:44:51;;;;;;;15.57;7.77;;;13.50;1.00;;;;;;4961106;28;20472;-73
2023/05/31 04:47:19;;;;;;;5.33;3.97;;;13.60;1.00;;;;;;4964987;28;20470;-76
2023/05/31 04:49:54;;;;;;;9.43;3.93;;;13.60;1.00;;;;;;4966011;28;20558;-73
2023/05/31 04:52:22;;;;;;;8.20;3.50;;;13.70;1.00;;;;;;4966617;28;20481;-75
2023/05/31 04:54:50;;;;;;;9.50;3.93;;;13.70;1.00;;;;;;4965058;28;20611;-74
2023/05/31 04:57:17;;;;;;;7.07;4.17;;;13.80;1.00;;;;;;4964396;28;20462;-71
2023/05/31 04:59:44;;;;;;;6.50;3.30;;;13.90;1.00;;;;;;4959711;28;20499;-72
2023/05/31 05:02:11;;;;;;;11.63;3.90;;;14.00;1.00;;;;;;4961601;28;20550;-72
2023/05/31 05:04:38;;;;;;;9.27;4.10;;;14.10;1.00;;;;;;4976342;28;20994;-73
2023/05/31 05:07:06;;;;;;;10.83;5.03;;;14.10;1.00;;;;;;4985412;28;20546;-72
2023/05/31 05:09:34;;;;;;;7.73;3.60;;;14.20;1.00;;;;;;4984671;28;20822;-73
2023/05/31 05:12:02;;;;;;;9.00;3.37;;;14.30;1.00;;;;;;4985894;28;20544;-72
2023/05/31 05:14:29;;;;;;;12.10;3.80;;;14.30;1.00;;;;;;4986142;28;20566;-73
2023/05/31 05:16:56;;;;;;;10.10;4.37;;;14.50;1.00;;;;;;4987276;28;20461;-74
2023/05/31 05:19:23;;;;;;;11.73;5.37;;;14.60;1.00;;;;;;4983848;28;20501;-73
2023/05/31 05:21:50;;;;;;;11.13;4.10;;;14.70;1.00;;;;;;4987152;28;20513;-73
2023/05/31 05:24:17;;;;;;;14.23;4.60;;;14.90;1.00;;;;;;4984959;28;20466;-73
2023/05/31 05:26:45;;;;;;;9.63;3.57;;;15.00;1.00;;;;;;4983000;28;20505;-72
2023/05/31 05:29:13;;;;;;;9.37;5.37;;;15.10;1.00;;;;;;4985404;28;20549;-73
2023/05/31 05:31:40;;;;;;;11.00;5.20;;;15.20;1.00;;;;;;4981022;28;20516;-73
2023/05/31 05:34:09;;;;;;;9.67;4.10;;;15.30;1.00;;;;;;4984980;28;20564;-72
2023/05/31 05:36:36;;;;;;;7.20;4.30;;;15.50;1.00;;;;;;4989093;28;20470;-72
2023/05/31 05:39:06;;;;;;;12.10;4.13;;;15.60;1.00;;;;;;4986045;28;20454;-72
2023/05/31 05:41:33;;;;;;;12.30;4.47;;;15.70;1.00;;;;;;4984265;28;20565;-73
2023/05/31 05:44:00;;;;;;;9.00;4.10;;;15.80;1.00;;;;;;4989210;28;20474;-73
2023/05/31 05:46:29;;;;;;;13.37;4.57;;;15.90;1.00;;;;;;4987386;28;20497;-71
2023/05/31 05:48:58;;;;;;;5.87;2.70;;;16.10;1.00;;;;;;4987945;28;20455;-73
2023/05/31 05:51:26;;;;;;;7.73;4.57;;;16.10;1.00;;;;;;4983787;28;20483;-74
2023/05/31 05:53:53;;;;;;;5.53;3.33;;;16.10;1.00;;;;;;4984193;28;20455;-73
2023/05/31 05:56:20;;;;;;;6.63;3.60;;;16.30;1.00;;;;;;4985609;28;20455;-73
2023/05/31 05:58:48;;;;;;;6.10;2.80;;;16.40;1.00;;;;;;4988739;28;20463;-73
2023/05/31 06:01:18;;;;;;;6.70;4.57;;;16.50;1.00;;;;;;4985649;28;20486;-73
2023/05/31 06:03:47;;;;;;;6.23;3.67;;;16.60;1.00;;;;;;4985524;28;20992;-73
2023/05/31 06:06:14;;;;;;;4.23;3.00;;;16.70;1.00;;;;;;4986599;28;20526;-73
2023/05/31 06:08:41;;;;;;;10.40;4.87;;;16.90;1.00;;;;;;4985923;28;20489;-74
2023/05/31 06:11:08;;;;;;;11.27;5.03;;;17.00;1.00;;;;;;4988541;28;20577;-75
2023/05/31 06:13:35;;;;;;;5.07;3.10;;;17.20;1.00;;;;;;4986366;28;20509;-74
2023/05/31 06:16:04;;;;;;;6.03;3.27;;;17.30;1.00;;;;;;4987439;28;20459;-72
2023/05/31 06:18:31;;;;;;;9.40;4.93;;;17.50;1.00;;;;;;4986416;28;22162;-72
2023/05/31 06:20:59;;;;;;;6.63;3.37;;;17.60;1.00;;;;;;4991510;28;21095;-72
2023/05/31 06:23:26;;;;;;;9.03;3.20;;;17.60;1.00;;;;;;4988414;28;20455;-72
2023/05/31 06:25:53;;;;;;;9.37;4.40;;;17.60;1.00;;;;;;4987228;28;20553;-72
2023/05/31 06:28:20;;;;;;;7.83;3.47;;;17.50;1.00;;;;;;4989088;28;20563;-73
2023/05/31 06:30:47;;;;;;;9.87;4.00;;;17.60;1.00;;;;;;4986057;28;20485;-72
2023/05/31 06:33:14;;;;;;;10.00;3.87;;;17.60;1.00;;;;;;4986420;28;20583;-74
2023/05/31 06:35:42;;;;;;;5.23;3.77;;;17.70;1.00;;;;;;4984759;28;20468;-73
2023/05/31 06:38:16;;;;;;;12.63;11.60;;;17.80;1.00;;;;;;4986479;28;20504;-72
2023/05/31 06:40:43;;;;;;;6.07;5.07;;;18.00;1.00;;;;;;4977253;28;20484;-73
2023/05/31 06:43:11;;;;;;;6.93;4.10;;;18.10;1.00;;;;;;4988149;28;20637;-73
2023/05/31 06:45:41;;;;;;;8.30;3.73;;;18.30;1.00;;;;;;4989691;28;20478;-74
2023/05/31 06:48:08;;;;;;;9.80;5.00;;;18.40;1.00;;;;;;4984960;28;20747;-73
2023/05/31 06:50:35;;;;;;;4.70;3.30;;;18.50;1.00;;;;;;4988384;28;20491;-73
2023/05/31 06:53:02;;;;;;;7.30;3.93;;;18.50;1.00;;;;;;4982920;28;20566;-71
2023/05/31 06:55:31;;;;;;;5.30;3.50;;;18.50;1.00;;;;;;4987865;28;20576;-72
2023/05/31 06:57:58;;;;;;;9.30;4.43;;;18.60;1.00;;;;;;4987980;28;20453;-73
2023/05/31 07:00:25;;;;;;;7.60;3.73;;;18.70;1.00;;;;;;4985782;28;20572;-73
2023/05/31 07:02:52;;;;;;;6.37;3.73;;;18.80;1.00;;;;;;4984995;28;20457;-72
2023/05/31 07:05:19;;;;;;;6.03;3.83;;;18.80;1.00;;;;;;4985727;28;20516;-73
2023/05/31 07:07:47;;;;;;;8.00;3.50;;;18.90;1.00;;;;;;4983608;28;20461;-71
2023/05/31 07:10:14;;;;;;;9.67;4.33;;;18.90;1.00;;;;;;4985440;28;22000;-74
2023/05/31 07:12:42;;;;;;;10.60;4.10;;;19.00;1.00;;;;;;4986778;28;20471;-73
2023/05/31 07:15:10;;;;;;;6.57;2.90;;;19.10;1.00;;;;;;4989282;28;20915;-72
2023/05/31 07:17:37;;;;;;;12.13;5.60;;;19.20;1.00;;;;;;4989926;28;20540;-75
2023/05/31 07:20:05;;;;;;;6.63;3.60;;;19.30;1.00;;;;;;4988209;28;20509;-72
2023/05/31 07:22:32;;;;;;;6.20;4.27;;;19.30;1.00;;;;;;4991622;28;20458;-73
2023/05/31 07:24:59;;;;;;;8.27;3.70;;;19.40;1.00;;;;;;4987713;28;20585;-73
2023/05/31 07:27:26;;;;;;;10.17;4.63;;;19.50;1.00;;;;;;4988109;28;20482;-73
2023/05/31 07:29:55;;;;;;;6.60;3.53;;;19.70;1.00;;;;;;4990409;28;20600;-72
2023/05/31 07:32:22;;;;;;;7.53;4.70;;;19.70;1.00;;;;;;4988006;28;20485;-72
2023/05/31 07:34:50;;;;;;;11.40;4.40;;;19.80;1.00;;;;;;4986949;28;20546;-72
2023/05/31 07:37:18;;;;;;;9.60;4.20;;;19.90;1.00;;;;;;4988503;28;20490;-73
2023/05/31 07:39:45;;;;;;;11.87;4.30;;;20.00;1.00;;;;;;4986752;28;20564;-72
2023/05/31 07:42:13;;;;;;;8.50;3.60;;;20.10;1.00;;;;;;4989660;28;20833;-75
2023/05/31 07:44:41;;;;;;;8.10;3.53;;;20.20;1.00;;;;;;4985212;28;20556;-73
2023/05/31 07:47:09;;;;;;;6.43;3.67;;;20.30;1.00;;;;;;4985936;28;21282;-73
2023/05/31 07:49:36;;;;;;;6.80;3.60;;;20.50;1.00;;;;;;4986730;28;20488;-72
2023/05/31 07:52:04;;;;;;;7.50;3.07;;;20.70;1.00;;;;;;4989489;28;21042;-73
2023/05/31 07:54:31;;;;;;;4.87;3.13;;;20.80;1.00;;;;;;4989984;28;20556;-72
2023/05/31 07:56:58;;;;;;;6.00;3.43;;;20.90;1.00;;;;;;4986246;28;20605;-73
2023/05/31 07:59:25;;;;;;;4.77;3.30;;;21.00;1.00;;;;;;4987182;28;20502;-74
2023/05/31 08:01:52;;;;;;;5.07;3.27;;;21.20;1.00;;;;;;4984997;28;20461;-74
2023/05/31 08:04:22;;;;;;;9.27;3.70;;;21.40;1.00;;;;;;4990237;28;20950;-73
2023/05/31 08:06:48;;;;;;;4.37;3.10;;;21.50;1.00;;;;;;4990120;28;20464;-74
2023/05/31 08:09:15;;;;;;;8.97;3.03;;;21.70;1.00;;;;;;4988368;28;20989;-73
2023/05/31 08:11:42;;;;;;;4.93;2.37;;;21.90;1.00;;;;;;4988351;28;20907;-73
2023/05/31 08:14:10;;;;;;;8.30;3.47;;;22.00;1.00;;;;;;4991699;28;21045;-74
2023/05/31 08:16:39;;;;;;;7.33;3.63;;;22.10;1.00;;;;;;4987996;28;20470;-72
2023/05/31 08:19:06;;;;;;;5.07;2.97;;;22.20;1.00;;;;;;4992671;28;20479;-72
2023/05/31 08:21:36;;;;;;;8.33;3.60;;;22.40;1.00;;;;;;4989753;28;20503;-73
2023/05/31 08:24:05;;;;;;;7.53;2.87;;;22.50;1.00;;;;;;4986862;28;20491;-76
2023/05/31 08:26:32;;;;;;;6.90;3.77;;;22.60;1.00;;;;;;4987946;28;20518;-73
2023/05/31 08:28:59;;;;;;;6.37;3.33;;;22.80;1.00;;;;;;4991736;28;20465;-73
2023/05/31 08:31:26;;;;;;;4.53;2.20;;;22.90;1.00;;;;;;4986226;28;20539;-73
2023/05/31 08:33:55;;;;;;;8.80;3.50;;;23.10;1.00;;;;;;4984589;28;20464;-70
2023/05/31 08:36:22;;;;;;;3.50;2.30;;;23.30;1.00;;;;;;4986575;28;20525;-72
2023/05/31 08:38:50;;;;;;;5.30;3.10;;;23.30;1.00;;;;;;4985921;28;20579;-72
2023/05/31 08:41:19;;;;;;;5.07;2.90;;;23.40;1.00;;;;;;4990865;28;20457;-72
2023/05/31 08:43:46;;;;;;;6.47;3.43;;;23.50;1.00;;;;;;4988239;28;20452;-72
2023/05/31 08:46:15;;;;;;;4.47;2.70;;;23.50;1.00;;;;;;4989425;28;20962;-74
2023/05/31 08:48:46;;;;;;;4.50;3.73;;;23.70;1.00;;;;;;4986260;28;21059;-73
2023/05/31 08:51:15;;;;;;;2.87;2.40;;;23.80;1.00;;;;;;4988802;28;21108;-72
2023/05/31 08:53:44;;;;;;;4.13;2.80;;;23.90;1.00;;;;;;4988474;28;20477;-72
2023/05/31 08:56:13;;;;;;;12.40;4.10;;;23.80;1.00;;;;;;4986479;28;20519;-73
2023/05/31 08:58:42;;;;;;;6.30;3.20;;;23.90;1.00;;;;;;4988758;28;20584;-73
2023/05/31 09:01:09;;;;;;;3.97;2.40;;;24.00;1.00;;;;;;4989629;28;21240;-72
2023/05/31 09:03:38;;;;;;;4.70;2.50;;;24.20;1.00;;;;;;4988741;28;20477;-75
2023/05/31 09:06:05;;;;;;;5.97;2.60;;;24.50;1.00;;;;;;4986693;28;20552;-72
2023/05/31 09:08:33;;;;;;;8.80;7.90;;;24.70;1.00;;;;;;4988534;28;20478;-73
2023/05/31 09:11:01;;;;;;;10.43;3.67;;;24.70;1.00;;;;;;4993894;28;20986;-75
2023/05/31 09:13:29;;;;;;;4.30;2.83;;;24.80;1.00;;;;;;4991509;28;20466;-74
2023/05/31 09:15:58;;;;;;;7.57;3.33;;;24.80;1.00;;;;;;4994827;28;20512;-73
2023/05/31 09:18:29;;;;;;;5.33;2.70;;;24.90;1.00;;;;;;4983162;28;20479;-73
2023/05/31 09:20:56;;;;;;;2.70;2.13;;;25.10;1.00;;;;;;4984686;28;20454;-74
2023/05/31 09:23:23;;;;;;;4.90;1.60;;;25.00;1.00;;;;;;4991632;28;20495;-72
2023/05/31 09:25:52;;;;;;;9.97;4.03;;;25.00;1.00;;;;;;4989861;28;20466;-73
2023/05/31 09:28:20;;;;;;;4.60;3.30;;;25.00;1.00;;;;;;4990280;28;20551;-73
2023/05/31 09:31:01;;;;;;;4.40;2.70;;;24.90;1.00;;;;;;4989385;28;20521;-74
2023/05/31 09:33:38;;;;;;;5.80;3.37;;;24.90;1.00;;;;;;4990514;28;20554;-73
2023/05/31 09:36:05;;;;;;;3.63;2.23;;;25.60;1.00;;;;;;4990361;28;20483;-74
2023/05/31 09:38:33;;;;;;;5.37;3.00;;;26.70;1.00;;;;;;4991145;28;20853;-73
2023/05/31 09:41:13;;;;;;;6.13;2.80;;;28.20;1.00;;;;;;4991387;28;20457;-73
2023/05/31 09:43:41;;;;;;;4.93;1.93;;;30.00;1.00;;;;;;4990097;28;20987;-76
2023/05/31 09:46:14;;;;;;;3.93;2.23;;;31.40;1.00;;;;;;4988995;28;21270;-74
2023/05/31 09:48:42;;;;;;;5.80;2.53;;;32.00;1.00;;;;;;4987967;28;20564;-73
2023/05/31 09:51:09;;;;;;;4.43;2.23;;;31.70;1.00;;;;;;4992373;28;20457;-74
2023/05/31 09:53:41;;;;;;;5.33;4.90;;;31.00;1.00;;;;;;4990354;28;20539;-74
2023/05/31 09:56:11;;;;;;;7.60;6.70;;;30.80;1.00;;;;;;4987840;28;20976;-71
2023/05/31 09:58:40;;;;;;;5.77;2.93;;;31.30;1.00;;;;;;4986367;28;20486;-73
2023/05/31 10:01:07;;;;;;;4.10;2.30;;;32.30;1.00;;;;;;4986293;28;20436;-73
2023/05/31 10:03:36;;;;;;;4.57;2.67;;;32.70;1.00;;;;;;4987791;28;20478;-73
2023/05/31 10:06:04;;;;;;;5.00;2.70;;;33.00;1.00;;;;;;4987764;28;20482;-71
2023/05/31 10:08:32;;;;;;;5.53;3.50;;;33.50;1.00;;;;;;4988466;28;20490;-73
2023/05/31 10:11:01;;;;;;;5.73;2.40;;;33.40;1.00;;;;;;4988231;28;20481;-72
2023/05/31 10:13:29;;;;;;;3.20;1.90;;;33.90;1.00;;;;;;4988747;28;20466;-72
2023/05/31 10:16:01;;;;;;;2.90;2.33;;;34.50;1.00;;;;;;4985197;28;20447;-72
2023/05/31 10:18:31;;;;;;;3.13;2.13;;;35.40;1.00;;;;;;4987851;28;20499;-72
2023/05/31 10:21:04;;;;;;;4.73;2.20;;;36.10;1.00;;;;;;4985612;28;20459;-73
2023/05/31 10:23:36;;;;;;;7.20;5.70;;;36.30;1.00;;;;;;4985742;28;20921;-72
2023/05/31 10:26:13;;;;;;;4.07;2.63;;;36.60;1.00;;;;;;4988924;28;20493;-73
2023/05/31 10:28:45;;;;;;;3.50;2.60;;;36.80;1.00;;;;;;4984620;28;20483;-73
2023/05/31 10:31:13;;;;;;;5.07;3.00;;;36.60;1.00;;;;;;4990861;28;20525;-73
2023/05/31 10:33:44;;;;;;;4.33;2.93;;;36.00;1.00;;;;;;4987698;28;20476;-73
2023/05/31 10:36:13;;;;;;;2.00;1.83;;;35.70;1.00;;;;;;4989490;28;20533;-74
2023/05/31 10:38:46;;;;;;;3.50;2.50;;;36.00;1.00;;;;;;4987461;28;20481;-72
2023/05/31 10:41:18;;;;;;;4.90;2.50;;;36.20;1.00;;;;;;4987681;28;20838;-74
2023/05/31 10:43:52;;;;;;;3.77;2.60;;;36.60;1.00;;;;;;4986761;28;20932;-72
2023/05/31 10:46:24;;;;;;;3.73;2.27;;;36.80;1.00;;;;;;4986867;28;20461;-72
2023/05/31 10:48:54;;;;;;;3.83;2.00;;;36.80;1.00;;;;;;4991100;28;20485;-72
2023/05/31 10:51:39;;;;;;;9.73;6.70;;;36.40;1.00;;;;;;4988266;28;20534;-72
2023/05/31 10:54:06;;;;;;;10.70;4.43;;;36.20;1.00;;;;;;4986419;28;20455;-72
2023/05/31 10:56:36;;;;;;;3.57;2.60;;;35.90;1.00;;;;;;4987303;28;20463;-73
2023/05/31 10:59:03;;;;;;;2.90;1.73;;;35.80;1.00;;;;;;4988729;28;20478;-71
2023/05/31 11:01:31;;;;;;;4.23;2.27;;;34.00;1.00;;;;;;4983063;28;20514;-74
2023/05/31 11:03:58;;;;;;;3.23;2.10;;;33.60;1.00;;;;;;4989007;28;20503;-77
2023/05/31 11:06:32;;;;;;;3.30;1.90;;;33.90;1.00;;;;;;4990960;28;20513;-76
2023/05/31 11:09:01;;;;;;;7.50;2.30;;;34.60;1.00;;;;;;4991479;28;20463;-78
2023/05/31 11:11:29;;;;;;;2.20;1.80;;;35.50;1.00;;;;;;4991314;28;20467;-78
2023/05/31 11:13:58;;;;;;;4.60;1.80;;;35.40;1.00;;;;;;4988242;28;20482;-77
2023/05/31 11:16:26;;;;;;;3.93;2.83;;;34.80;1.00;;;;;;4988674;28;20477;-77
2023/05/31 11:19:03;;;;;;;4.47;1.93;;;34.20;1.00;;;;;;4988202;28;20502;-79
2023/05/31 11:21:52;;;;;;;8.83;3.17;;;33.20;1.00;;;;;;4996859;28;20909;-77
2023/05/31 11:24:30;;;;;;;2.83;2.03;;;32.80;1.00;;;;;;4997048;28;20447;-80
2023/05/31 11:26:59;;;;;;;2.20;1.67;;;33.90;1.00;;;;;;4991680;28;20469;-76
2023/05/31 11:29:26;;;;;;;2.83;1.63;;;35.40;1.00;;;;;;4993832;28;20946;-77
2023/05/31 11:32:01;;;;;;;3.90;1.80;;;35.90;1.00;;;;;;4991659;28;20455;-78
2023/05/31 11:34:30;;;;;;;2.80;2.50;;;35.90;1.00;;;;;;4988398;28;20474;-77
2023/05/31 11:37:03;;;;;;;3.27;2.47;;;36.10;1.00;;;;;;4988030;28;20955;-77
2023/05/31 11:39:30;;;;;;;1.70;1.40;;;36.80;1.00;;;;;;4990828;28;20479;-77
2023/05/31 11:41:58;;;;;;;1.97;1.50;;;37.90;1.00;;;;;;4992977;28;20483;-78
2023/05/31 11:44:29;;;;;;;2.60;1.40;;;39.00;1.00;;;;;;4988693;28;20487;-76
2023/05/31 11:47:06;;;;;;;3.20;1.60;;;39.80;1.00;;;;;;4990062;28;20960;-78
2023/05/31 11:49:33;;;;;;;2.60;1.57;;;40.60;1.00;;;;;;4990356;28;20569;-76
2023/05/31 11:52:02;;;;;;;3.17;1.30;;;39.80;1.00;;;;;;4992693;28;20484;-78
2023/05/31 11:54:32;;;;;;;4.80;2.43;;;38.50;1.00;;;;;;4992238;28;20459;-77
2023/05/31 11:57:02;;;;;;;2.40;1.53;;;39.30;1.00;;;;;;4991503;28;20443;-77
2023/05/31 11:59:31;;;;;;;2.70;1.60;;;40.40;1.00;;;;;;4989378;28;20471;-78
2023/05/31 12:02:00;;;;;;;1.50;1.40;;;41.40;1.00;;;;;;4990151;28;20450;-79
2023/05/31 12:04:35;;;;;;;2.23;1.40;;;41.90;1.00;;;;;;4986828;28;20445;-78
2023/05/31 12:07:04;;;;;;;2.60;1.67;;;42.10;1.00;;;;;;4989688;28;20462;-77
2023/05/31 12:09:31;;;;;;;1.60;1.30;;;42.10;1.00;;;;;;4991062;28;20908;-77
2023/05/31 12:11:58;;;;;;;2.77;2.13;;;42.00;1.00;;;;;;4990634;28;23604;-77
2023/05/31 12:14:26;;;;;;;5.57;2.50;;;41.50;1.00;;;;;;4993545;28;20565;-78
2023/05/31 12:16:54;;;;;;;1.63;1.23;;;41.30;1.00;;;;;;4973682;28;21193;-77
2023/05/31 12:19:21;;;;;;;4.23;2.20;;;41.20;1.00;;;;;;4991033;28;20506;-79
2023/05/31 12:21:49;;;;;;;2.50;1.60;;;40.50;1.00;;;;;;4991602;28;20451;-77
2023/05/31 12:24:18;;;;;;;1.53;1.43;;;39.30;1.00;;;;;;4991373;28;21049;-79
2023/05/31 12:26:48;;;;;;;1.60;0.90;;;38.30;1.00;;;;;;4989669;28;20477;-76
2023/05/31 12:29:15;;;;;;;2.70;1.50;;;37.90;1.00;;;;;;4991812;28;20553;-75
2023/05/31 12:31:43;;;;;;;7.93;3.40;;;37.80;1.00;;;;;;4989609;28;20509;-77
2023/05/31 12:34:11;;;;;;;4.53;4.13;;;37.60;1.00;;;;;;4991639;28;20462;-78
2023/05/31 12:36:46;;;;;;;2.63;1.90;;;38.20;1.00;;;;;;4988941;28;20495;-79
2023/05/31 12:39:16;;;;;;;4.97;1.40;;;39.40;1.00;;;;;;4991824;28;20470;-77
2023/05/31 12:41:46;;;;;;;1.70;1.33;;;40.50;1.00;;;;;;4973528;28;21103;-76
2023/05/31 12:44:16;;;;;;;4.30;2.33;;;41.10;1.00;;;;;;4992687;28;20554;-76
2023/05/31 12:46:44;;;;;;;4.70;4.27;;;41.10;1.00;;;;;;4993313;28;20462;-76
2023/05/31 12:49:12;;;;;;;2.00;1.40;;;40.90;1.00;;;;;;4995119;28;20478;-77
2023/05/31 12:51:39;;;;;;;2.00;1.60;;;40.70;1.00;;;;;;4996420;28;20525;-77
2023/05/31 12:54:11;;;;;;;3.70;1.97;;;40.10;1.00;;;;;;4995587;28;20550;-78
2023/05/31 12:56:38;;;;;;;3.80;1.53;;;39.50;1.00;;;;;;4993127;28;20478;-77
2023/05/31 12:59:08;;;;;;;3.53;1.67;;;39.10;1.00;;;;;;4994849;28;20466;-75
2023/05/31 13:01:35;;;;;;;3.53;1.50;;;39.50;1.00;;;;;;4993374;28;20478;-77